Suehiro Maru No.8 — JK5423 — position and weather

sailwx.info

Track history (hours):
 
Tides and Currents Weather Stations Pressure Air Temp Water Temp Dewpoint Dewpoint Depression Visibility Wind Speed Wind Dir Waves Ship Positions

Suehiro Maru No.8

Last reported at 2016-Sep-22 00:34 UTC. Time now 2016-Sep-25 22:35 UTC.
Position N 35°18' E 139°43'.

Length 88 m; draft 5.2 m.

Type: Cargo ship. MMSI: 431400446.

Date/timePositionNaut miles runAvg speedWind from/ knotsBaromVisibWave heightAir tempDewpointWater temp
2016-Sep-22 00:34N 35°18' E 139°43'1211.8
2016-Sep-21 23:33N 35°29' E 139°49'6 6.2
2016-Sep-21 22:33N 35°35' E 139°52'0 0.0
2016-Sep-21 19:34N 35°35' E 139°52'0 0.0
2016-Sep-21 16:33N 35°35' E 139°52'0 0.0
2016-Sep-21 09:33N 35°35' E 139°52'0 0.0
2016-Sep-21 08:33N 35°35' E 139°52'0 0.0
2016-Sep-21 05:33N 35°35' E 139°52'0 0.0
2016-Sep-21 03:34N 35°35' E 139°52'0 0.1
2016-Sep-21 02:34N 35°35' E 139°52'0 0.0
2016-Sep-20 17:33N 35°35' E 139°52'0 0.0
2016-Sep-20 14:33N 35°35' E 139°52'0 0.0
2016-Sep-20 13:33N 35°35' E 139°52'0 0.0
2016-Sep-20 10:33N 35°35' E 139°52'0 0.0
2016-Sep-20 08:33N 35°35' E 139°52'0 0.0
2016-Sep-20 07:33N 35°35' E 139°52'0 0.1
2016-Sep-20 06:33N 35°35' E 139°52'3 0.9
2016-Sep-20 02:33N 35°37' E 139°49'0 0.0
2016-Sep-19 23:33N 35°37' E 139°49'6 1.4
2016-Sep-19 19:33N 35°33' E 139°53'0 0.0
2016-Sep-19 18:33N 35°33' E 139°53'0 0.0
2016-Sep-19 16:33N 35°33' E 139°53'3 1.5
2016-Sep-19 14:33N 35°30' E 139°52'1211.5
2016-Sep-19 13:33N 35°20' E 139°45'1110.8
2016-Sep-19 12:33N 35°10' E 139°46'243 4.7
2016-Sep-17 09:20N 34°03' E 135°03'810.8
2016-Sep-17 08:33N 34°11' E 135°04'4 4.4
2016-Sep-17 07:33N 34°15' E 135°07'0 0.0
2016-Sep-17 05:33N 34°15' E 135°07'0 0.0
2016-Sep-17 04:33N 34°15' E 135°07'0 0.0
2016-Sep-17 00:33N 34°15' E 135°07'2 0.2
2016-Sep-16 17:33N 34°15' E 135°05'0 0.0
2016-Sep-16 15:33N 34°15' E 135°05'0 0.0
2016-Sep-16 12:33N 34°15' E 135°05'0 0.0
2016-Sep-16 09:33N 34°15' E 135°05'18 9.0
2016-Sep-16 07:33N 34°33' E 135°03'  
2016-Sep-12 14:33N 35°01' E 140°10'3013.5
2016-Sep-12 12:18N 35°22' E 140°36'1013.8
2016-Sep-12 11:33N 35°31' E 140°43'25 6.2
2016-Sep-12 07:33N 35°56' E 140°41'0 0.0
2016-Sep-12 06:31N 35°56' E 140°41'0 0.0
2016-Sep-12 03:18N 35°56' E 140°41'0 0.1
2016-Sep-12 01:33N 35°55' E 140°41'  
Track history (hours):
 
Tides and Currents Weather Stations Pressure Air Temp Water Temp Dewpoint Dewpoint Depression Visibility Wind Speed Wind Dir Waves Ship Positions

Suehiro Maru No.8

Last reported at 2016-Sep-22 00:34 UTC. Time now 2016-Sep-25 22:35 UTC.
Position N 35°18' E 139°43'.

Length 88 m; draft 5.2 m.

Type: Cargo ship. MMSI: 431400446.

Date/timePositionNaut miles runAvg speedWind from/ knotsBaromVisibWave heightAir tempDewpointWater temp
2016-Sep-22 00:34N 35°18' E 139°43'1211.8
2016-Sep-21 23:33N 35°29' E 139°49'6 6.2
2016-Sep-21 22:33N 35°35' E 139°52'0 0.0
2016-Sep-21 19:34N 35°35' E 139°52'0 0.0
2016-Sep-21 16:33N 35°35' E 139°52'0 0.0
2016-Sep-21 09:33N 35°35' E 139°52'0 0.0
2016-Sep-21 08:33N 35°35' E 139°52'0 0.0
2016-Sep-21 05:33N 35°35' E 139°52'0 0.0
2016-Sep-21 03:34N 35°35' E 139°52'0 0.1
2016-Sep-21 02:34N 35°35' E 139°52'0 0.0
2016-Sep-20 17:33N 35°35' E 139°52'0 0.0
2016-Sep-20 14:33N 35°35' E 139°52'0 0.0
2016-Sep-20 13:33N 35°35' E 139°52'0 0.0
2016-Sep-20 10:33N 35°35' E 139°52'0 0.0
2016-Sep-20 08:33N 35°35' E 139°52'0 0.0
2016-Sep-20 07:33N 35°35' E 139°52'0 0.1
2016-Sep-20 06:33N 35°35' E 139°52'3 0.9
2016-Sep-20 02:33N 35°37' E 139°49'0 0.0
2016-Sep-19 23:33N 35°37' E 139°49'6 1.4
2016-Sep-19 19:33N 35°33' E 139°53'0 0.0
2016-Sep-19 18:33N 35°33' E 139°53'0 0.0
2016-Sep-19 16:33N 35°33' E 139°53'3 1.5
2016-Sep-19 14:33N 35°30' E 139°52'1211.5
2016-Sep-19 13:33N 35°20' E 139°45'1110.8
2016-Sep-19 12:33N 35°10' E 139°46'243 4.7
2016-Sep-17 09:20N 34°03' E 135°03'810.8
2016-Sep-17 08:33N 34°11' E 135°04'4 4.4
2016-Sep-17 07:33N 34°15' E 135°07'0 0.0
2016-Sep-17 05:33N 34°15' E 135°07'0 0.0
2016-Sep-17 04:33N 34°15' E 135°07'0 0.0
2016-Sep-17 00:33N 34°15' E 135°07'2 0.2
2016-Sep-16 17:33N 34°15' E 135°05'0 0.0
2016-Sep-16 15:33N 34°15' E 135°05'0 0.0
2016-Sep-16 12:33N 34°15' E 135°05'0 0.0
2016-Sep-16 09:33N 34°15' E 135°05'18 9.0
2016-Sep-16 07:33N 34°33' E 135°03'  
2016-Sep-12 14:33N 35°01' E 140°10'3013.5
2016-Sep-12 12:18N 35°22' E 140°36'1013.8
2016-Sep-12 11:33N 35°31' E 140°43'25 6.2
2016-Sep-12 07:33N 35°56' E 140°41'0 0.0
2016-Sep-12 06:31N 35°56' E 140°41'0 0.0
2016-Sep-12 03:18N 35°56' E 140°41'0 0.1
2016-Sep-12 01:33N 35°55' E 140°41'  

Dump ship's entire track history